sensor_id;sensor_type;location;lat;lon;timestamp;P1;durP1;ratioP1;P2;durP2;ratioP2
8219;SDS011;4151;51.110;7.020;2022-11-15T00:01:31;13.30;;;6.90;;
8219;SDS011;4151;51.110;7.020;2022-11-15T00:03:57;8.80;;;6.40;;
8219;SDS011;4151;51.110;7.020;2022-11-15T00:06:22;11.17;;;7.07;;
8219;SDS011;4151;51.110;7.020;2022-11-15T00:08:48;15.90;;;7.00;;
8219;SDS011;4151;51.110;7.020;2022-11-15T00:11:13;19.63;;;6.00;;
8219;SDS011;4151;51.110;7.020;2022-11-15T00:13:39;14.17;;;6.27;;
8219;SDS011;4151;51.110;7.020;2022-11-15T00:16:05;15.93;;;6.73;;
8219;SDS011;4151;51.110;7.020;2022-11-15T00:18:31;8.10;;;6.10;;
8219;SDS011;4151;51.110;7.020;2022-11-15T00:21:02;12.60;;;7.57;;
8219;SDS011;4151;51.110;7.020;2022-11-15T00:23:29;10.00;;;6.20;;
8219;SDS011;4151;51.110;7.020;2022-11-15T00:25:55;13.73;;;7.03;;
8219;SDS011;4151;51.110;7.020;2022-11-15T00:28:24;13.13;;;7.67;;
8219;SDS011;4151;51.110;7.020;2022-11-15T00:30:50;12.47;;;6.57;;
8219;SDS011;4151;51.110;7.020;2022-11-15T00:33:15;10.23;;;6.73;;
8219;SDS011;4151;51.110;7.020;2022-11-15T00:35:41;13.67;;;7.50;;
8219;SDS011;4151;51.110;7.020;2022-11-15T00:38:06;10.90;;;6.70;;
8219;SDS011;4151;51.110;7.020;2022-11-15T00:40:32;8.50;;;5.83;;
8219;SDS011;4151;51.110;7.020;2022-11-15T00:42:58;16.40;;;7.50;;
8219;SDS011;4151;51.110;7.020;2022-11-15T00:45:24;14.50;;;6.87;;
8219;SDS011;4151;51.110;7.020;2022-11-15T00:47:50;10.70;;;6.60;;
8219;SDS011;4151;51.110;7.020;2022-11-15T00:50:16;17.97;;;6.93;;
8219;SDS011;4151;51.110;7.020;2022-11-15T00:52:41;15.47;;;6.33;;
8219;SDS011;4151;51.110;7.020;2022-11-15T00:55:17;12.47;;;6.40;;
8219;SDS011;4151;51.110;7.020;2022-11-15T00:57:44;11.30;;;6.90;;
8219;SDS011;4151;51.110;7.020;2022-11-15T01:00:10;14.07;;;6.43;;
8219;SDS011;4151;51.110;7.020;2022-11-15T01:02:36;12.60;;;5.93;;
8219;SDS011;4151;51.110;7.020;2022-11-15T01:05:02;15.73;;;6.67;;
8219;SDS011;4151;51.110;7.020;2022-11-15T01:07:28;17.27;;;5.77;;
8219;SDS011;4151;51.110;7.020;2022-11-15T01:09:53;12.20;;;6.10;;
8219;SDS011;4151;51.110;7.020;2022-11-15T01:12:19;16.67;;;6.23;;
8219;SDS011;4151;51.110;7.020;2022-11-15T01:14:44;16.60;;;6.90;;
8219;SDS011;4151;51.110;7.020;2022-11-15T01:17:10;10.60;;;6.50;;
8219;SDS011;4151;51.110;7.020;2022-11-15T01:19:36;10.47;;;6.10;;
8219;SDS011;4151;51.110;7.020;2022-11-15T01:22:01;10.27;;;6.00;;
8219;SDS011;4151;51.110;7.020;2022-11-15T01:24:27;12.17;;;5.93;;
8219;SDS011;4151;51.110;7.020;2022-11-15T01:26:52;13.80;;;6.33;;
8219;SDS011;4151;51.110;7.020;2022-11-15T01:29:18;11.63;;;6.00;;
8219;SDS011;4151;51.110;7.020;2022-11-15T01:31:43;17.30;;;6.90;;
8219;SDS011;4151;51.110;7.020;2022-11-15T01:34:09;14.70;;;6.13;;
8219;SDS011;4151;51.110;7.020;2022-11-15T01:36:34;8.83;;;5.50;;
8219;SDS011;4151;51.110;7.020;2022-11-15T01:39:00;11.83;;;6.90;;
8219;SDS011;4151;51.110;7.020;2022-11-15T01:41:27;15.20;;;6.10;;
8219;SDS011;4151;51.110;7.020;2022-11-15T01:43:55;12.57;;;6.53;;
8219;SDS011;4151;51.110;7.020;2022-11-15T01:49:00;16.83;;;6.77;;
8219;SDS011;4151;51.110;7.020;2022-11-15T01:51:29;12.43;;;6.20;;
8219;SDS011;4151;51.110;7.020;2022-11-15T01:53:58;14.13;;;5.70;;
8219;SDS011;4151;51.110;7.020;2022-11-15T01:56:29;17.50;;;6.60;;
8219;SDS011;4151;51.110;7.020;2022-11-15T01:58:58;15.07;;;6.03;;
8219;SDS011;4151;51.110;7.020;2022-11-15T02:01:27;15.67;;;5.97;;
8219;SDS011;4151;51.110;7.020;2022-11-15T02:03:56;12.23;;;6.23;;
8219;SDS011;4151;51.110;7.020;2022-11-15T02:06:24;20.23;;;6.30;;
8219;SDS011;4151;51.110;7.020;2022-11-15T02:08:50;17.63;;;6.80;;
8219;SDS011;4151;51.110;7.020;2022-11-15T02:11:16;14.53;;;7.53;;
8219;SDS011;4151;51.110;7.020;2022-11-15T02:13:42;11.70;;;6.37;;
8219;SDS011;4151;51.110;7.020;2022-11-15T02:27:14;12.07;;;5.90;;
8219;SDS011;4151;51.110;7.020;2022-11-15T02:32:44;8.50;;;5.27;;
8219;SDS011;4151;51.110;7.020;2022-11-15T02:37:56;9.40;;;5.53;;
8219;SDS011;4151;51.110;7.020;2022-11-15T02:43:02;7.90;;;5.77;;
8219;SDS011;4151;51.110;7.020;2022-11-15T02:45:54;13.10;;;6.57;;
8219;SDS011;4151;51.110;7.020;2022-11-15T02:48:32;9.07;;;5.40;;
8219;SDS011;4151;51.110;7.020;2022-11-15T02:50:58;11.37;;;5.80;;
8219;SDS011;4151;51.110;7.020;2022-11-15T02:53:25;10.53;;;5.93;;
8219;SDS011;4151;51.110;7.020;2022-11-15T02:55:51;11.93;;;5.90;;
8219;SDS011;4151;51.110;7.020;2022-11-15T03:01:00;11.37;;;5.90;;
8219;SDS011;4151;51.110;7.020;2022-11-15T03:03:40;9.70;;;5.93;;
8219;SDS011;4151;51.110;7.020;2022-11-15T03:06:22;11.77;;;5.53;;
8219;SDS011;4151;51.110;7.020;2022-11-15T03:11:35;12.50;;;6.27;;
8219;SDS011;4151;51.110;7.020;2022-11-15T03:14:22;8.03;;;5.53;;
8219;SDS011;4151;51.110;7.020;2022-11-15T03:22:20;7.50;;;4.80;;
8219;SDS011;4151;51.110;7.020;2022-11-15T03:24:50;9.10;;;5.37;;
8219;SDS011;4151;51.110;7.020;2022-11-15T03:27:20;13.80;;;6.97;;
8219;SDS011;4151;51.110;7.020;2022-11-15T03:29:56;11.13;;;5.20;;
8219;SDS011;4151;51.110;7.020;2022-11-15T03:32:26;8.33;;;5.20;;
8219;SDS011;4151;51.110;7.020;2022-11-15T03:35:01;10.20;;;5.17;;
8219;SDS011;4151;51.110;7.020;2022-11-15T03:37:39;9.10;;;4.87;;
8219;SDS011;4151;51.110;7.020;2022-11-15T03:40:13;10.20;;;5.77;;
8219;SDS011;4151;51.110;7.020;2022-11-15T03:42:43;13.40;;;7.77;;
8219;SDS011;4151;51.110;7.020;2022-11-15T03:45:22;12.57;;;5.70;;
8219;SDS011;4151;51.110;7.020;2022-11-15T03:47:58;8.80;;;4.77;;
8219;SDS011;4151;51.110;7.020;2022-11-15T03:50:27;11.40;;;5.70;;
8219;SDS011;4151;51.110;7.020;2022-11-15T03:52:54;8.53;;;5.30;;
8219;SDS011;4151;51.110;7.020;2022-11-15T03:55:21;8.73;;;4.80;;
8219;SDS011;4151;51.110;7.020;2022-11-15T03:57:48;10.37;;;5.70;;
8219;SDS011;4151;51.110;7.020;2022-11-15T04:00:16;11.40;;;4.83;;
8219;SDS011;4151;51.110;7.020;2022-11-15T04:02:41;7.67;;;5.57;;
8219;SDS011;4151;51.110;7.020;2022-11-15T04:05:07;6.80;;;5.27;;
8219;SDS011;4151;51.110;7.020;2022-11-15T04:07:33;10.93;;;5.10;;
8219;SDS011;4151;51.110;7.020;2022-11-15T04:09:58;8.17;;;4.83;;
8219;SDS011;4151;51.110;7.020;2022-11-15T04:12:27;9.80;;;5.90;;
8219;SDS011;4151;51.110;7.020;2022-11-15T04:14:59;8.40;;;4.90;;
8219;SDS011;4151;51.110;7.020;2022-11-15T04:17:33;9.10;;;5.50;;
8219;SDS011;4151;51.110;7.020;2022-11-15T04:20:10;13.23;;;6.40;;
8219;SDS011;4151;51.110;7.020;2022-11-15T04:23:00;9.77;;;6.23;;
8219;SDS011;4151;51.110;7.020;2022-11-15T04:25:47;8.70;;;5.60;;
8219;SDS011;4151;51.110;7.020;2022-11-15T04:28:15;9.00;;;5.77;;
8219;SDS011;4151;51.110;7.020;2022-11-15T04:30:41;9.90;;;5.60;;
8219;SDS011;4151;51.110;7.020;2022-11-15T04:33:07;8.57;;;6.30;;
8219;SDS011;4151;51.110;7.020;2022-11-15T04:35:32;9.93;;;6.10;;
8219;SDS011;4151;51.110;7.020;2022-11-15T04:37:58;9.93;;;6.17;;
8219;SDS011;4151;51.110;7.020;2022-11-15T04:40:24;10.53;;;6.00;;
8219;SDS011;4151;51.110;7.020;2022-11-15T04:42:49;10.03;;;5.80;;
8219;SDS011;4151;51.110;7.020;2022-11-15T04:45:15;12.03;;;5.77;;
8219;SDS011;4151;51.110;7.020;2022-11-15T04:47:42;10.27;;;7.03;;
8219;SDS011;4151;51.110;7.020;2022-11-15T04:50:09;9.20;;;5.67;;
8219;SDS011;4151;51.110;7.020;2022-11-15T04:52:38;9.70;;;6.40;;
8219;SDS011;4151;51.110;7.020;2022-11-15T04:55:08;15.83;;;6.50;;
8219;SDS011;4151;51.110;7.020;2022-11-15T04:57:34;7.80;;;5.63;;
8219;SDS011;4151;51.110;7.020;2022-11-15T05:00:00;7.50;;;5.50;;
8219;SDS011;4151;51.110;7.020;2022-11-15T05:02:27;7.73;;;5.80;;
8219;SDS011;4151;51.110;7.020;2022-11-15T05:05:13;8.17;;;5.57;;
8219;SDS011;4151;51.110;7.020;2022-11-15T05:07:38;7.10;;;5.17;;
8219;SDS011;4151;51.110;7.020;2022-11-15T05:10:04;8.20;;;6.20;;
8219;SDS011;4151;51.110;7.020;2022-11-15T05:12:30;10.53;;;5.53;;
8219;SDS011;4151;51.110;7.020;2022-11-15T05:14:55;7.90;;;5.30;;
8219;SDS011;4151;51.110;7.020;2022-11-15T05:17:21;6.27;;;5.13;;
8219;SDS011;4151;51.110;7.020;2022-11-15T05:19:46;8.40;;;5.63;;
8219;SDS011;4151;51.110;7.020;2022-11-15T05:22:12;6.53;;;4.67;;
8219;SDS011;4151;51.110;7.020;2022-11-15T05:24:37;11.10;;;5.30;;
8219;SDS011;4151;51.110;7.020;2022-11-15T05:27:03;6.47;;;4.70;;
8219;SDS011;4151;51.110;7.020;2022-11-15T05:29:28;8.23;;;5.07;;
8219;SDS011;4151;51.110;7.020;2022-11-15T05:31:54;7.50;;;4.73;;
8219;SDS011;4151;51.110;7.020;2022-11-15T05:34:19;6.97;;;4.87;;
8219;SDS011;4151;51.110;7.020;2022-11-15T05:36:47;12.33;;;4.67;;
8219;SDS011;4151;51.110;7.020;2022-11-15T05:39:13;7.73;;;4.60;;
8219;SDS011;4151;51.110;7.020;2022-11-15T05:41:41;9.10;;;4.53;;
8219;SDS011;4151;51.110;7.020;2022-11-15T05:44:14;10.13;;;4.93;;
8219;SDS011;4151;51.110;7.020;2022-11-15T05:46:42;5.03;;;3.97;;
8219;SDS011;4151;51.110;7.020;2022-11-15T05:49:10;6.83;;;4.27;;
8219;SDS011;4151;51.110;7.020;2022-11-15T05:51:40;6.00;;;4.40;;
8219;SDS011;4151;51.110;7.020;2022-11-15T05:54:08;4.37;;;3.77;;
8219;SDS011;4151;51.110;7.020;2022-11-15T05:56:34;6.90;;;4.17;;
8219;SDS011;4151;51.110;7.020;2022-11-15T05:59:00;7.30;;;4.00;;
8219;SDS011;4151;51.110;7.020;2022-11-15T06:01:26;4.40;;;3.60;;
8219;SDS011;4151;51.110;7.020;2022-11-15T06:03:52;5.73;;;4.07;;
8219;SDS011;4151;51.110;7.020;2022-11-15T06:06:17;4.73;;;3.97;;
8219;SDS011;4151;51.110;7.020;2022-11-15T06:08:43;5.10;;;3.80;;
8219;SDS011;4151;51.110;7.020;2022-11-15T06:11:08;3.63;;;3.27;;
8219;SDS011;4151;51.110;7.020;2022-11-15T06:13:34;5.30;;;3.93;;
8219;SDS011;4151;51.110;7.020;2022-11-15T06:16:00;5.30;;;3.87;;
8219;SDS011;4151;51.110;7.020;2022-11-15T06:18:25;5.63;;;3.70;;
8219;SDS011;4151;51.110;7.020;2022-11-15T06:20:51;5.70;;;3.30;;
8219;SDS011;4151;51.110;7.020;2022-11-15T06:23:17;6.63;;;3.80;;
8219;SDS011;4151;51.110;7.020;2022-11-15T06:25:42;11.40;;;3.60;;
8219;SDS011;4151;51.110;7.020;2022-11-15T06:28:08;4.23;;;3.13;;
8219;SDS011;4151;51.110;7.020;2022-11-15T06:30:34;5.63;;;3.10;;
8219;SDS011;4151;51.110;7.020;2022-11-15T06:33:03;6.20;;;3.40;;
8219;SDS011;4151;51.110;7.020;2022-11-15T06:35:30;6.40;;;4.30;;
8219;SDS011;4151;51.110;7.020;2022-11-15T06:38:07;8.20;;;3.47;;
8219;SDS011;4151;51.110;7.020;2022-11-15T06:40:34;5.17;;;3.40;;
8219;SDS011;4151;51.110;7.020;2022-11-15T06:43:01;4.10;;;3.40;;
8219;SDS011;4151;51.110;7.020;2022-11-15T06:45:28;6.10;;;3.87;;
8219;SDS011;4151;51.110;7.020;2022-11-15T06:47:53;6.23;;;3.47;;
8219;SDS011;4151;51.110;7.020;2022-11-15T06:50:19;3.43;;;2.87;;
8219;SDS011;4151;51.110;7.020;2022-11-15T06:52:44;3.70;;;3.13;;
8219;SDS011;4151;51.110;7.020;2022-11-15T06:55:10;6.10;;;3.23;;
8219;SDS011;4151;51.110;7.020;2022-11-15T06:57:36;4.03;;;3.00;;
8219;SDS011;4151;51.110;7.020;2022-11-15T07:00:05;7.27;;;3.40;;
8219;SDS011;4151;51.110;7.020;2022-11-15T07:02:31;9.90;;;3.57;;
8219;SDS011;4151;51.110;7.020;2022-11-15T07:04:56;4.37;;;2.90;;
8219;SDS011;4151;51.110;7.020;2022-11-15T07:07:22;4.10;;;3.10;;
8219;SDS011;4151;51.110;7.020;2022-11-15T07:09:47;3.20;;;2.87;;
8219;SDS011;4151;51.110;7.020;2022-11-15T07:12:13;4.40;;;2.40;;
8219;SDS011;4151;51.110;7.020;2022-11-15T07:14:38;4.13;;;3.00;;
8219;SDS011;4151;51.110;7.020;2022-11-15T07:17:04;8.13;;;3.00;;
8219;SDS011;4151;51.110;7.020;2022-11-15T07:19:30;4.83;;;2.53;;
8219;SDS011;4151;51.110;7.020;2022-11-15T07:21:56;4.20;;;2.80;;
8219;SDS011;4151;51.110;7.020;2022-11-15T07:24:22;2.50;;;2.13;;
8219;SDS011;4151;51.110;7.020;2022-11-15T07:26:47;7.00;;;3.00;;
8219;SDS011;4151;51.110;7.020;2022-11-15T07:29:13;5.90;;;2.50;;
8219;SDS011;4151;51.110;7.020;2022-11-15T07:31:38;3.30;;;2.27;;
8219;SDS011;4151;51.110;7.020;2022-11-15T07:34:04;5.00;;;2.27;;
8219;SDS011;4151;51.110;7.020;2022-11-15T07:36:30;4.27;;;2.27;;
8219;SDS011;4151;51.110;7.020;2022-11-15T07:38:55;3.80;;;2.23;;
8219;SDS011;4151;51.110;7.020;2022-11-15T07:41:21;4.07;;;2.07;;
8219;SDS011;4151;51.110;7.020;2022-11-15T07:43:46;4.50;;;2.10;;
8219;SDS011;4151;51.110;7.020;2022-11-15T07:46:15;4.83;;;2.40;;
8219;SDS011;4151;51.110;7.020;2022-11-15T07:48:41;4.77;;;2.50;;
8219;SDS011;4151;51.110;7.020;2022-11-15T07:51:06;4.67;;;2.30;;
8219;SDS011;4151;51.110;7.020;2022-11-15T07:53:32;4.47;;;2.53;;
8219;SDS011;4151;51.110;7.020;2022-11-15T07:55:57;2.60;;;2.40;;
8219;SDS011;4151;51.110;7.020;2022-11-15T07:58:23;4.07;;;2.43;;
8219;SDS011;4151;51.110;7.020;2022-11-15T08:00:49;6.60;;;2.47;;
8219;SDS011;4151;51.110;7.020;2022-11-15T08:03:15;3.00;;;2.20;;
8219;SDS011;4151;51.110;7.020;2022-11-15T08:05:42;3.10;;;2.10;;
8219;SDS011;4151;51.110;7.020;2022-11-15T08:08:09;7.50;;;2.53;;
8219;SDS011;4151;51.110;7.020;2022-11-15T08:10:35;6.20;;;2.23;;
8219;SDS011;4151;51.110;7.020;2022-11-15T08:13:05;4.93;;;2.03;;
8219;SDS011;4151;51.110;7.020;2022-11-15T08:15:35;2.33;;;1.80;;
8219;SDS011;4151;51.110;7.020;2022-11-15T08:18:05;9.13;;;2.63;;
8219;SDS011;4151;51.110;7.020;2022-11-15T08:20:34;3.10;;;2.17;;
8219;SDS011;4151;51.110;7.020;2022-11-15T08:23:01;3.50;;;2.23;;
8219;SDS011;4151;51.110;7.020;2022-11-15T08:25:29;3.43;;;2.30;;
8219;SDS011;4151;51.110;7.020;2022-11-15T08:27:57;2.03;;;1.83;;
8219;SDS011;4151;51.110;7.020;2022-11-15T08:30:25;6.00;;;2.13;;
8219;SDS011;4151;51.110;7.020;2022-11-15T08:32:51;3.50;;;2.40;;
8219;SDS011;4151;51.110;7.020;2022-11-15T08:35:18;5.13;;;3.17;;
8219;SDS011;4151;51.110;7.020;2022-11-15T08:37:45;3.30;;;2.07;;
8219;SDS011;4151;51.110;7.020;2022-11-15T08:40:10;2.10;;;1.90;;
8219;SDS011;4151;51.110;7.020;2022-11-15T08:42:37;4.80;;;1.80;;
8219;SDS011;4151;51.110;7.020;2022-11-15T08:45:02;3.70;;;2.10;;
8219;SDS011;4151;51.110;7.020;2022-11-15T08:47:28;2.00;;;1.70;;
8219;SDS011;4151;51.110;7.020;2022-11-15T08:49:54;1.53;;;1.43;;
8219;SDS011;4151;51.110;7.020;2022-11-15T08:52:19;2.00;;;1.80;;
8219;SDS011;4151;51.110;7.020;2022-11-15T08:54:45;1.70;;;1.60;;
8219;SDS011;4151;51.110;7.020;2022-11-15T08:57:11;7.00;;;1.70;;
8219;SDS011;4151;51.110;7.020;2022-11-15T08:59:37;2.70;;;1.40;;
8219;SDS011;4151;51.110;7.020;2022-11-15T09:02:02;6.43;;;1.50;;
8219;SDS011;4151;51.110;7.020;2022-11-15T09:04:29;1.57;;;1.40;;
8219;SDS011;4151;51.110;7.020;2022-11-15T09:06:54;2.93;;;1.60;;
8219;SDS011;4151;51.110;7.020;2022-11-15T09:09:20;4.47;;;2.00;;
8219;SDS011;4151;51.110;7.020;2022-11-15T09:11:45;1.50;;;1.30;;
8219;SDS011;4151;51.110;7.020;2022-11-15T09:14:12;2.10;;;1.40;;
8219;SDS011;4151;51.110;7.020;2022-11-15T09:16:38;1.97;;;1.40;;
8219;SDS011;4151;51.110;7.020;2022-11-15T09:19:04;2.47;;;1.40;;
8219;SDS011;4151;51.110;7.020;2022-11-15T09:21:30;7.70;;;1.57;;
8219;SDS011;4151;51.110;7.020;2022-11-15T09:23:56;2.97;;;1.60;;
8219;SDS011;4151;51.110;7.020;2022-11-15T09:26:22;3.83;;;1.30;;
8219;SDS011;4151;51.110;7.020;2022-11-15T09:28:48;3.63;;;1.20;;
8219;SDS011;4151;51.110;7.020;2022-11-15T09:31:13;2.20;;;1.33;;
8219;SDS011;4151;51.110;7.020;2022-11-15T09:33:39;2.33;;;1.10;;
8219;SDS011;4151;51.110;7.020;2022-11-15T09:36:08;3.10;;;1.40;;
8219;SDS011;4151;51.110;7.020;2022-11-15T09:38:35;2.23;;;1.23;;
8219;SDS011;4151;51.110;7.020;2022-11-15T09:46:43;2.13;;;1.37;;
8219;SDS011;4151;51.110;7.020;2022-11-15T09:49:20;2.00;;;1.37;;
8219;SDS011;4151;51.110;7.020;2022-11-15T09:51:47;4.40;;;1.43;;
8219;SDS011;4151;51.110;7.020;2022-11-15T10:00:08;3.10;;;1.40;;
8219;SDS011;4151;51.110;7.020;2022-11-15T10:02:46;3.13;;;1.50;;
8219;SDS011;4151;51.110;7.020;2022-11-15T10:05:16;1.80;;;1.30;;
8219;SDS011;4151;51.110;7.020;2022-11-15T10:10:44;6.27;;;1.43;;
8219;SDS011;4151;51.110;7.020;2022-11-15T10:13:18;3.30;;;1.10;;
8219;SDS011;4151;51.110;7.020;2022-11-15T10:15:48;4.40;;;1.27;;
8219;SDS011;4151;51.110;7.020;2022-11-15T10:18:34;3.53;;;1.10;;
8219;SDS011;4151;51.110;7.020;2022-11-15T10:21:20;2.17;;;1.33;;
8219;SDS011;4151;51.110;7.020;2022-11-15T10:23:48;2.40;;;1.40;;
8219;SDS011;4151;51.110;7.020;2022-11-15T10:26:16;3.93;;;1.07;;
8219;SDS011;4151;51.110;7.020;2022-11-15T10:28:42;7.00;;;1.87;;
8219;SDS011;4151;51.110;7.020;2022-11-15T10:31:24;1.70;;;1.00;;
8219;SDS011;4151;51.110;7.020;2022-11-15T10:34:03;1.63;;;1.03;;
8219;SDS011;4151;51.110;7.020;2022-11-15T10:36:38;1.13;;;1.00;;
8219;SDS011;4151;51.110;7.020;2022-11-15T13:07:03;4.20;;;0.87;;
8219;SDS011;4151;51.110;7.020;2022-11-15T13:12:08;1.33;;;0.73;;
8219;SDS011;4151;51.110;7.020;2022-11-15T13:14:47;4.40;;;1.20;;
8219;SDS011;4151;51.110;7.020;2022-11-15T13:19:43;5.27;;;1.40;;
8219;SDS011;4151;51.110;7.020;2022-11-15T13:22:11;5.03;;;1.30;;
8219;SDS011;4151;51.110;7.020;2022-11-15T13:24:55;2.93;;;1.13;;
8219;SDS011;4151;51.110;7.020;2022-11-15T13:27:21;5.20;;;1.07;;
8219;SDS011;4151;51.110;7.020;2022-11-15T13:29:47;2.13;;;1.27;;
8219;SDS011;4151;51.110;7.020;2022-11-15T13:32:13;1.33;;;1.10;;
8219;SDS011;4151;51.110;7.020;2022-11-15T13:34:44;4.13;;;1.13;;
8219;SDS011;4151;51.110;7.020;2022-11-15T13:39:47;3.80;;;1.20;;
8219;SDS011;4151;51.110;7.020;2022-11-15T13:42:17;1.20;;;1.07;;
8219;SDS011;4151;51.110;7.020;2022-11-15T13:45:00;1.27;;;1.17;;
8219;SDS011;4151;51.110;7.020;2022-11-15T13:47:28;4.60;;;1.00;;
8219;SDS011;4151;51.110;7.020;2022-11-15T13:49:58;2.77;;;1.10;;
8219;SDS011;4151;51.110;7.020;2022-11-15T13:52:28;4.17;;;1.40;;
8219;SDS011;4151;51.110;7.020;2022-11-15T13:54:59;3.07;;;1.30;;
8219;SDS011;4151;51.110;7.020;2022-11-15T13:57:38;7.90;;;2.07;;
8219;SDS011;4151;51.110;7.020;2022-11-15T14:03:03;1.87;;;1.50;;
8219;SDS011;4151;51.110;7.020;2022-11-15T14:05:31;5.13;;;2.20;;
8219;SDS011;4151;51.110;7.020;2022-11-15T14:08:02;3.30;;;2.10;;
8219;SDS011;4151;51.110;7.020;2022-11-15T14:10:37;3.47;;;1.70;;
8219;SDS011;4151;51.110;7.020;2022-11-15T14:13:03;11.20;;;2.10;;
8219;SDS011;4151;51.110;7.020;2022-11-15T14:15:36;5.33;;;1.50;;
8219;SDS011;4151;51.110;7.020;2022-11-15T14:18:02;6.23;;;1.80;;
8219;SDS011;4151;51.110;7.020;2022-11-15T14:23:01;4.53;;;1.40;;
8219;SDS011;4151;51.110;7.020;2022-11-15T14:25:29;5.60;;;2.07;;
8219;SDS011;4151;51.110;7.020;2022-11-15T14:28:16;3.13;;;1.70;;
8219;SDS011;4151;51.110;7.020;2022-11-15T14:30:56;2.70;;;2.20;;
8219;SDS011;4151;51.110;7.020;2022-11-15T14:33:33;3.67;;;2.37;;
8219;SDS011;4151;51.110;7.020;2022-11-15T14:36:04;2.60;;;1.83;;
8219;SDS011;4151;51.110;7.020;2022-11-15T14:38:41;3.00;;;1.90;;
8219;SDS011;4151;51.110;7.020;2022-11-15T14:41:25;1.80;;;1.70;;
8219;SDS011;4151;51.110;7.020;2022-11-15T14:43:51;6.73;;;1.83;;
8219;SDS011;4151;51.110;7.020;2022-11-15T14:46:18;2.87;;;1.93;;
8219;SDS011;4151;51.110;7.020;2022-11-15T14:48:43;4.70;;;2.03;;
8219;SDS011;4151;51.110;7.020;2022-11-15T14:51:13;3.47;;;1.83;;
8219;SDS011;4151;51.110;7.020;2022-11-15T14:53:43;6.13;;;2.00;;
8219;SDS011;4151;51.110;7.020;2022-11-15T14:56:09;6.37;;;1.90;;
8219;SDS011;4151;51.110;7.020;2022-11-15T14:58:35;10.20;;;2.17;;
8219;SDS011;4151;51.110;7.020;2022-11-15T15:01:12;6.03;;;1.80;;
8219;SDS011;4151;51.110;7.020;2022-11-15T15:03:41;2.93;;;1.67;;
8219;SDS011;4151;51.110;7.020;2022-11-15T15:06:08;6.37;;;1.63;;
8219;SDS011;4151;51.110;7.020;2022-11-15T15:08:34;4.07;;;2.00;;
8219;SDS011;4151;51.110;7.020;2022-11-15T15:11:00;3.63;;;2.00;;
8219;SDS011;4151;51.110;7.020;2022-11-15T15:13:25;3.13;;;1.57;;
8219;SDS011;4151;51.110;7.020;2022-11-15T15:15:53;3.07;;;1.80;;
8219;SDS011;4151;51.110;7.020;2022-11-15T15:18:19;4.30;;;3.13;;
8219;SDS011;4151;51.110;7.020;2022-11-15T15:20:45;5.03;;;2.10;;
8219;SDS011;4151;51.110;7.020;2022-11-15T15:23:18;6.37;;;1.70;;
8219;SDS011;4151;51.110;7.020;2022-11-15T15:25:45;3.60;;;1.60;;
8219;SDS011;4151;51.110;7.020;2022-11-15T15:28:12;5.57;;;1.90;;
8219;SDS011;4151;51.110;7.020;2022-11-15T15:30:38;2.30;;;1.67;;
8219;SDS011;4151;51.110;7.020;2022-11-15T15:33:04;4.40;;;2.20;;
8219;SDS011;4151;51.110;7.020;2022-11-15T15:35:30;7.07;;;1.43;;
8219;SDS011;4151;51.110;7.020;2022-11-15T15:37:58;2.50;;;1.77;;
8219;SDS011;4151;51.110;7.020;2022-11-15T15:40:24;2.37;;;1.60;;
8219;SDS011;4151;51.110;7.020;2022-11-15T15:42:50;3.73;;;1.60;;
8219;SDS011;4151;51.110;7.020;2022-11-15T15:45:17;1.50;;;1.40;;
8219;SDS011;4151;51.110;7.020;2022-11-15T15:47:43;2.23;;;1.63;;
8219;SDS011;4151;51.110;7.020;2022-11-15T15:50:55;5.80;;;2.03;;
8219;SDS011;4151;51.110;7.020;2022-11-15T15:52:59;2.63;;;1.57;;
8219;SDS011;4151;51.110;7.020;2022-11-15T15:55:27;1.90;;;1.50;;
8219;SDS011;4151;51.110;7.020;2022-11-15T15:57:53;1.70;;;1.60;;
8219;SDS011;4151;51.110;7.020;2022-11-15T16:00:19;2.30;;;1.40;;
8219;SDS011;4151;51.110;7.020;2022-11-15T16:02:46;4.67;;;1.50;;
8219;SDS011;4151;51.110;7.020;2022-11-15T16:05:12;1.83;;;1.63;;
8219;SDS011;4151;51.110;7.020;2022-11-15T16:07:38;2.57;;;2.13;;
8219;SDS011;4151;51.110;7.020;2022-11-15T16:10:23;6.73;;;4.53;;
8219;SDS011;4151;51.110;7.020;2022-11-15T16:12:51;3.30;;;1.53;;
8219;SDS011;4151;51.110;7.020;2022-11-15T16:15:17;1.97;;;1.47;;
8219;SDS011;4151;51.110;7.020;2022-11-15T16:17:45;7.10;;;2.10;;
8219;SDS011;4151;51.110;7.020;2022-11-15T16:20:28;7.33;;;2.10;;
8219;SDS011;4151;51.110;7.020;2022-11-15T16:22:56;2.80;;;1.90;;
8219;SDS011;4151;51.110;7.020;2022-11-15T16:25:22;4.07;;;1.70;;
8219;SDS011;4151;51.110;7.020;2022-11-15T16:27:47;2.20;;;1.50;;
8219;SDS011;4151;51.110;7.020;2022-11-15T16:30:17;4.67;;;1.97;;
8219;SDS011;4151;51.110;7.020;2022-11-15T16:32:44;3.87;;;1.90;;
8219;SDS011;4151;51.110;7.020;2022-11-15T16:35:13;15.53;;;6.60;;
8219;SDS011;4151;51.110;7.020;2022-11-15T16:37:40;15.33;;;8.90;;
8219;SDS011;4151;51.110;7.020;2022-11-15T16:43:03;8.13;;;4.60;;
8219;SDS011;4151;51.110;7.020;2022-11-15T16:45:30;6.73;;;1.80;;
8219;SDS011;4151;51.110;7.020;2022-11-15T16:47:58;2.10;;;1.63;;
8219;SDS011;4151;51.110;7.020;2022-11-15T16:50:29;1.70;;;1.37;;
8219;SDS011;4151;51.110;7.020;2022-11-15T16:52:58;4.30;;;1.80;;
8219;SDS011;4151;51.110;7.020;2022-11-15T16:55:25;2.70;;;2.10;;
8219;SDS011;4151;51.110;7.020;2022-11-15T16:57:53;4.17;;;2.30;;
8219;SDS011;4151;51.110;7.020;2022-11-15T17:00:20;3.70;;;1.73;;
8219;SDS011;4151;51.110;7.020;2022-11-15T17:02:47;2.03;;;1.80;;
8219;SDS011;4151;51.110;7.020;2022-11-15T17:05:14;2.27;;;1.70;;
8219;SDS011;4151;51.110;7.020;2022-11-15T17:07:41;1.30;;;1.20;;
8219;SDS011;4151;51.110;7.020;2022-11-15T17:10:08;1.80;;;1.43;;
8219;SDS011;4151;51.110;7.020;2022-11-15T17:12:35;3.30;;;1.40;;
8219;SDS011;4151;51.110;7.020;2022-11-15T17:15:01;2.87;;;1.80;;
8219;SDS011;4151;51.110;7.020;2022-11-15T17:17:28;2.37;;;1.60;;
8219;SDS011;4151;51.110;7.020;2022-11-15T17:19:54;2.57;;;1.57;;
8219;SDS011;4151;51.110;7.020;2022-11-15T17:22:20;2.27;;;1.63;;
8219;SDS011;4151;51.110;7.020;2022-11-15T17:24:45;1.97;;;1.53;;
8219;SDS011;4151;51.110;7.020;2022-11-15T17:27:11;3.37;;;1.70;;
8219;SDS011;4151;51.110;7.020;2022-11-15T17:29:36;2.80;;;1.60;;
8219;SDS011;4151;51.110;7.020;2022-11-15T17:32:02;4.00;;;1.43;;
8219;SDS011;4151;51.110;7.020;2022-11-15T17:34:27;1.60;;;1.50;;
8219;SDS011;4151;51.110;7.020;2022-11-15T17:36:53;4.03;;;2.00;;
8219;SDS011;4151;51.110;7.020;2022-11-15T17:39:19;2.90;;;1.73;;
8219;SDS011;4151;51.110;7.020;2022-11-15T17:41:45;7.03;;;3.20;;
8219;SDS011;4151;51.110;7.020;2022-11-15T17:44:11;6.10;;;1.87;;
8219;SDS011;4151;51.110;7.020;2022-11-15T17:46:37;4.17;;;1.73;;
8219;SDS011;4151;51.110;7.020;2022-11-15T17:49:04;4.70;;;1.90;;
8219;SDS011;4151;51.110;7.020;2022-11-15T17:51:30;2.00;;;1.80;;
8219;SDS011;4151;51.110;7.020;2022-11-15T17:53:56;1.60;;;1.50;;
8219;SDS011;4151;51.110;7.020;2022-11-15T17:56:22;3.30;;;2.20;;
8219;SDS011;4151;51.110;7.020;2022-11-15T17:58:50;2.23;;;2.00;;
8219;SDS011;4151;51.110;7.020;2022-11-15T18:03:46;5.40;;;2.50;;
8219;SDS011;4151;51.110;7.020;2022-11-15T18:06:13;4.43;;;1.90;;
8219;SDS011;4151;51.110;7.020;2022-11-15T18:08:39;3.77;;;2.33;;
8219;SDS011;4151;51.110;7.020;2022-11-15T18:11:08;6.20;;;2.60;;
8219;SDS011;4151;51.110;7.020;2022-11-15T18:13:36;3.00;;;2.37;;
8219;SDS011;4151;51.110;7.020;2022-11-15T18:16:04;4.47;;;2.23;;
8219;SDS011;4151;51.110;7.020;2022-11-15T18:18:32;2.40;;;2.20;;
8219;SDS011;4151;51.110;7.020;2022-11-15T18:21:09;2.60;;;2.23;;
8219;SDS011;4151;51.110;7.020;2022-11-15T18:23:40;4.67;;;3.00;;
8219;SDS011;4151;51.110;7.020;2022-11-15T18:26:07;5.23;;;2.60;;
8219;SDS011;4151;51.110;7.020;2022-11-15T18:28:35;3.23;;;2.57;;
8219;SDS011;4151;51.110;7.020;2022-11-15T18:31:03;4.93;;;2.70;;
8219;SDS011;4151;51.110;7.020;2022-11-15T18:33:37;4.40;;;2.83;;
8219;SDS011;4151;51.110;7.020;2022-11-15T18:36:04;4.20;;;3.50;;
8219;SDS011;4151;51.110;7.020;2022-11-15T18:38:32;4.23;;;3.27;;
8219;SDS011;4151;51.110;7.020;2022-11-15T18:41:03;3.73;;;3.07;;
8219;SDS011;4151;51.110;7.020;2022-11-15T18:43:37;3.20;;;2.90;;
8219;SDS011;4151;51.110;7.020;2022-11-15T18:46:04;4.53;;;3.43;;
8219;SDS011;4151;51.110;7.020;2022-11-15T18:48:33;6.97;;;4.23;;
8219;SDS011;4151;51.110;7.020;2022-11-15T18:51:04;9.23;;;3.50;;
8219;SDS011;4151;51.110;7.020;2022-11-15T18:53:32;8.00;;;3.70;;